sensor_id;sensor_type;location;lat;lon;timestamp;P1;durP1;ratioP1;P2;durP2;ratioP2
24145;SDS011;12308;50.948;4.706;2022-09-09T00:01:59;9.13;;;2.70;;
24145;SDS011;12308;50.948;4.706;2022-09-09T00:04:30;12.65;;;2.53;;
24145;SDS011;12308;50.948;4.706;2022-09-09T00:12:17;8.03;;;2.70;;
24145;SDS011;12308;50.948;4.706;2022-09-09T00:14:56;8.75;;;3.17;;
24145;SDS011;12308;50.948;4.706;2022-09-09T00:17:43;8.70;;;2.50;;
24145;SDS011;12308;50.948;4.706;2022-09-09T00:20:25;11.38;;;2.78;;
24145;SDS011;12308;50.948;4.706;2022-09-09T00:22:58;12.15;;;2.75;;
24145;SDS011;12308;50.948;4.706;2022-09-09T00:25:39;7.00;;;2.53;;
24145;SDS011;12308;50.948;4.706;2022-09-09T00:28:18;13.57;;;2.40;;
24145;SDS011;12308;50.948;4.706;2022-09-09T00:30:47;7.22;;;2.63;;
24145;SDS011;12308;50.948;4.706;2022-09-09T00:33:19;9.45;;;3.00;;
24145;SDS011;12308;50.948;4.706;2022-09-09T00:35:49;13.95;;;2.60;;
24145;SDS011;12308;50.948;4.706;2022-09-09T00:38:18;13.38;;;2.95;;
24145;SDS011;12308;50.948;4.706;2022-09-09T00:43:37;9.90;;;2.80;;
24145;SDS011;12308;50.948;4.706;2022-09-09T00:49:07;8.57;;;2.28;;
24145;SDS011;12308;50.948;4.706;2022-09-09T00:57:36;10.43;;;2.53;;
24145;SDS011;12308;50.948;4.706;2022-09-09T01:08:13;10.48;;;3.00;;
24145;SDS011;12308;50.948;4.706;2022-09-09T01:10:53;12.95;;;2.53;;
24145;SDS011;12308;50.948;4.706;2022-09-09T01:13:26;11.23;;;2.92;;
24145;SDS011;12308;50.948;4.706;2022-09-09T01:15:58;8.48;;;2.80;;
24145;SDS011;12308;50.948;4.706;2022-09-09T01:18:27;13.27;;;2.92;;
24145;SDS011;12308;50.948;4.706;2022-09-09T01:29:00;12.52;;;3.13;;
24145;SDS011;12308;50.948;4.706;2022-09-09T01:31:27;16.23;;;3.40;;
24145;SDS011;12308;50.948;4.706;2022-09-09T01:33:56;10.43;;;2.92;;
24145;SDS011;12308;50.948;4.706;2022-09-09T01:36:39;12.25;;;3.10;;
24145;SDS011;12308;50.948;4.706;2022-09-09T01:39:12;9.77;;;2.85;;
24145;SDS011;12308;50.948;4.706;2022-09-09T01:41:38;10.15;;;3.00;;
24145;SDS011;12308;50.948;4.706;2022-09-09T01:44:05;15.35;;;2.83;;
24145;SDS011;12308;50.948;4.706;2022-09-09T01:46:32;10.75;;;2.90;;
24145;SDS011;12308;50.948;4.706;2022-09-09T01:48:58;8.90;;;3.10;;
24145;SDS011;12308;50.948;4.706;2022-09-09T01:51:25;9.40;;;2.88;;
24145;SDS011;12308;50.948;4.706;2022-09-09T01:53:51;9.88;;;3.05;;
24145;SDS011;12308;50.948;4.706;2022-09-09T01:56:20;14.02;;;2.95;;
24145;SDS011;12308;50.948;4.706;2022-09-09T02:02:03;14.93;;;2.80;;
24145;SDS011;12308;50.948;4.706;2022-09-09T02:05:02;10.75;;;3.15;;
24145;SDS011;12308;50.948;4.706;2022-09-09T02:08:20;11.50;;;2.88;;
24145;SDS011;12308;50.948;4.706;2022-09-09T02:10:59;10.70;;;2.85;;
24145;SDS011;12308;50.948;4.706;2022-09-09T02:13:31;11.07;;;2.97;;
24145;SDS011;12308;50.948;4.706;2022-09-09T02:16:08;11.20;;;3.08;;
24145;SDS011;12308;50.948;4.706;2022-09-09T02:21:40;6.20;;;2.33;;
24145;SDS011;12308;50.948;4.706;2022-09-09T02:24:09;16.02;;;3.20;;
24145;SDS011;12308;50.948;4.706;2022-09-09T02:26:39;12.63;;;3.28;;
24145;SDS011;12308;50.948;4.706;2022-09-09T02:29:08;8.40;;;3.47;;
24145;SDS011;12308;50.948;4.706;2022-09-09T02:31:47;10.18;;;3.10;;
24145;SDS011;12308;50.948;4.706;2022-09-09T02:34:16;11.88;;;2.72;;
24145;SDS011;12308;50.948;4.706;2022-09-09T02:36:45;14.75;;;3.33;;
24145;SDS011;12308;50.948;4.706;2022-09-09T02:39:11;11.20;;;3.00;;
24145;SDS011;12308;50.948;4.706;2022-09-09T02:41:39;15.32;;;3.20;;
24145;SDS011;12308;50.948;4.706;2022-09-09T02:44:12;16.27;;;3.67;;
24145;SDS011;12308;50.948;4.706;2022-09-09T02:58:08;16.75;;;2.83;;
24145;SDS011;12308;50.948;4.706;2022-09-09T03:00:37;13.82;;;3.63;;
24145;SDS011;12308;50.948;4.706;2022-09-09T03:03:04;16.25;;;3.03;;
24145;SDS011;12308;50.948;4.706;2022-09-09T03:05:31;14.07;;;2.92;;
24145;SDS011;12308;50.948;4.706;2022-09-09T03:07:57;23.48;;;3.35;;
24145;SDS011;12308;50.948;4.706;2022-09-09T03:10:23;10.13;;;3.33;;
24145;SDS011;12308;50.948;4.706;2022-09-09T03:12:49;14.40;;;3.92;;
24145;SDS011;12308;50.948;4.706;2022-09-09T03:15:15;15.10;;;3.38;;
24145;SDS011;12308;50.948;4.706;2022-09-09T03:17:41;11.38;;;2.92;;
24145;SDS011;12308;50.948;4.706;2022-09-09T03:20:07;10.65;;;2.88;;
24145;SDS011;12308;50.948;4.706;2022-09-09T03:22:34;13.90;;;3.35;;
24145;SDS011;12308;50.948;4.706;2022-09-09T03:25:00;12.00;;;2.90;;
24145;SDS011;12308;50.948;4.706;2022-09-09T03:27:26;15.35;;;3.05;;
24145;SDS011;12308;50.948;4.706;2022-09-09T03:29:52;12.75;;;3.05;;
24145;SDS011;12308;50.948;4.706;2022-09-09T03:32:18;15.13;;;2.95;;
24145;SDS011;12308;50.948;4.706;2022-09-09T03:34:44;17.42;;;3.38;;
24145;SDS011;12308;50.948;4.706;2022-09-09T03:37:10;11.95;;;3.03;;
24145;SDS011;12308;50.948;4.706;2022-09-09T03:39:35;22.00;;;3.33;;
24145;SDS011;12308;50.948;4.706;2022-09-09T03:42:01;15.93;;;3.08;;
24145;SDS011;12308;50.948;4.706;2022-09-09T03:44:29;9.73;;;2.80;;
24145;SDS011;12308;50.948;4.706;2022-09-09T03:46:55;11.50;;;3.25;;
24145;SDS011;12308;50.948;4.706;2022-09-09T03:49:21;15.90;;;3.63;;
24145;SDS011;12308;50.948;4.706;2022-09-09T03:51:47;17.20;;;3.25;;
24145;SDS011;12308;50.948;4.706;2022-09-09T03:54:13;12.63;;;2.80;;
24145;SDS011;12308;50.948;4.706;2022-09-09T03:56:39;13.52;;;3.10;;
24145;SDS011;12308;50.948;4.706;2022-09-09T03:59:06;12.18;;;3.33;;
24145;SDS011;12308;50.948;4.706;2022-09-09T04:01:33;12.52;;;3.15;;
24145;SDS011;12308;50.948;4.706;2022-09-09T04:03:59;11.73;;;3.33;;
24145;SDS011;12308;50.948;4.706;2022-09-09T04:06:27;17.88;;;3.92;;
24145;SDS011;12308;50.948;4.706;2022-09-09T04:08:53;10.48;;;2.83;;
24145;SDS011;12308;50.948;4.706;2022-09-09T04:11:18;14.63;;;2.80;;
24145;SDS011;12308;50.948;4.706;2022-09-09T04:13:44;14.60;;;3.47;;
24145;SDS011;12308;50.948;4.706;2022-09-09T04:16:11;20.75;;;3.38;;
24145;SDS011;12308;50.948;4.706;2022-09-09T04:18:41;18.42;;;3.95;;
24145;SDS011;12308;50.948;4.706;2022-09-09T04:21:08;15.52;;;3.33;;
24145;SDS011;12308;50.948;4.706;2022-09-09T04:23:35;13.98;;;3.20;;
24145;SDS011;12308;50.948;4.706;2022-09-09T04:26:02;18.17;;;3.42;;
24145;SDS011;12308;50.948;4.706;2022-09-09T04:28:29;19.70;;;3.47;;
24145;SDS011;12308;50.948;4.706;2022-09-09T04:30:57;15.82;;;4.10;;
24145;SDS011;12308;50.948;4.706;2022-09-09T04:33:29;11.55;;;3.67;;
24145;SDS011;12308;50.948;4.706;2022-09-09T04:35:56;16.38;;;3.55;;
24145;SDS011;12308;50.948;4.706;2022-09-09T04:38:22;14.00;;;3.60;;
24145;SDS011;12308;50.948;4.706;2022-09-09T04:40:48;16.50;;;3.72;;
24145;SDS011;12308;50.948;4.706;2022-09-09T04:43:15;20.75;;;3.33;;
24145;SDS011;12308;50.948;4.706;2022-09-09T04:45:41;11.73;;;3.03;;
24145;SDS011;12308;50.948;4.706;2022-09-09T04:48:07;11.25;;;3.20;;
24145;SDS011;12308;50.948;4.706;2022-09-09T04:50:34;13.27;;;3.70;;
24145;SDS011;12308;50.948;4.706;2022-09-09T04:53:01;17.67;;;4.25;;
24145;SDS011;12308;50.948;4.706;2022-09-09T04:55:27;16.63;;;3.70;;
24145;SDS011;12308;50.948;4.706;2022-09-09T04:57:53;16.52;;;3.55;;
24145;SDS011;12308;50.948;4.706;2022-09-09T05:00:19;20.48;;;4.75;;
24145;SDS011;12308;50.948;4.706;2022-09-09T05:02:45;18.27;;;3.25;;
24145;SDS011;12308;50.948;4.706;2022-09-09T05:05:12;17.33;;;4.75;;
24145;SDS011;12308;50.948;4.706;2022-09-09T05:07:37;20.13;;;4.22;;
24145;SDS011;12308;50.948;4.706;2022-09-09T05:10:03;15.73;;;4.03;;
24145;SDS011;12308;50.948;4.706;2022-09-09T05:12:31;18.15;;;3.72;;
24145;SDS011;12308;50.948;4.706;2022-09-09T05:14:57;24.10;;;3.95;;
24145;SDS011;12308;50.948;4.706;2022-09-09T05:17:23;23.30;;;4.10;;
24145;SDS011;12308;50.948;4.706;2022-09-09T05:19:48;16.80;;;4.25;;
24145;SDS011;12308;50.948;4.706;2022-09-09T05:22:18;17.95;;;3.95;;
24145;SDS011;12308;50.948;4.706;2022-09-09T05:24:45;15.73;;;4.03;;
24145;SDS011;12308;50.948;4.706;2022-09-09T05:27:11;24.42;;;4.38;;
24145;SDS011;12308;50.948;4.706;2022-09-09T05:29:37;20.63;;;4.45;;
24145;SDS011;12308;50.948;4.706;2022-09-09T05:32:04;20.20;;;3.78;;
24145;SDS011;12308;50.948;4.706;2022-09-09T05:34:29;16.67;;;4.47;;
24145;SDS011;12308;50.948;4.706;2022-09-09T05:36:55;22.60;;;4.38;;
24145;SDS011;12308;50.948;4.706;2022-09-09T05:39:21;15.82;;;4.15;;
24145;SDS011;12308;50.948;4.706;2022-09-09T05:41:46;16.42;;;3.83;;
24145;SDS011;12308;50.948;4.706;2022-09-09T05:44:12;17.95;;;3.88;;
24145;SDS011;12308;50.948;4.706;2022-09-09T05:46:38;23.05;;;4.72;;
24145;SDS011;12308;50.948;4.706;2022-09-09T05:49:04;16.50;;;4.18;;
24145;SDS011;12308;50.948;4.706;2022-09-09T05:51:31;19.20;;;4.50;;
24145;SDS011;12308;50.948;4.706;2022-09-09T05:53:57;21.48;;;5.00;;
24145;SDS011;12308;50.948;4.706;2022-09-09T05:56:26;18.10;;;4.95;;
24145;SDS011;12308;50.948;4.706;2022-09-09T05:58:53;14.98;;;4.13;;
24145;SDS011;12308;50.948;4.706;2022-09-09T06:03:49;17.52;;;4.00;;
24145;SDS011;12308;50.948;4.706;2022-09-09T06:06:19;17.98;;;4.15;;
24145;SDS011;12308;50.948;4.706;2022-09-09T06:08:47;18.65;;;3.90;;
24145;SDS011;12308;50.948;4.706;2022-09-09T06:11:26;22.67;;;4.20;;
24145;SDS011;12308;50.948;4.706;2022-09-09T06:13:56;17.98;;;3.83;;
24145;SDS011;12308;50.948;4.706;2022-09-09T06:16:23;15.90;;;3.65;;
24145;SDS011;12308;50.948;4.706;2022-09-09T06:18:50;16.95;;;3.83;;
24145;SDS011;12308;50.948;4.706;2022-09-09T06:21:19;18.63;;;4.53;;
24145;SDS011;12308;50.948;4.706;2022-09-09T06:23:46;16.92;;;3.80;;
24145;SDS011;12308;50.948;4.706;2022-09-09T06:26:17;21.50;;;3.85;;
24145;SDS011;12308;50.948;4.706;2022-09-09T06:28:45;12.43;;;3.28;;
24145;SDS011;12308;50.948;4.706;2022-09-09T06:31:16;13.77;;;3.45;;
24145;SDS011;12308;50.948;4.706;2022-09-09T06:33:43;11.18;;;3.35;;
24145;SDS011;12308;50.948;4.706;2022-09-09T06:36:13;15.50;;;4.30;;
24145;SDS011;12308;50.948;4.706;2022-09-09T06:38:41;21.83;;;3.97;;
24145;SDS011;12308;50.948;4.706;2022-09-09T06:41:08;17.73;;;3.67;;
24145;SDS011;12308;50.948;4.706;2022-09-09T06:43:35;14.55;;;3.03;;
24145;SDS011;12308;50.948;4.706;2022-09-09T06:48:38;17.95;;;3.95;;
24145;SDS011;12308;50.948;4.706;2022-09-09T06:51:08;15.15;;;3.42;;
24145;SDS011;12308;50.948;4.706;2022-09-09T06:53:35;19.77;;;3.90;;
24145;SDS011;12308;50.948;4.706;2022-09-09T06:56:02;17.48;;;3.85;;
24145;SDS011;12308;50.948;4.706;2022-09-09T06:58:42;16.15;;;3.75;;
24145;SDS011;12308;50.948;4.706;2022-09-09T07:01:10;21.15;;;3.88;;
24145;SDS011;12308;50.948;4.706;2022-09-09T07:03:37;15.75;;;3.65;;
24145;SDS011;12308;50.948;4.706;2022-09-09T07:06:04;16.65;;;2.75;;
24145;SDS011;12308;50.948;4.706;2022-09-09T07:08:30;18.30;;;3.63;;
24145;SDS011;12308;50.948;4.706;2022-09-09T07:11:03;16.02;;;3.42;;
24145;SDS011;12308;50.948;4.706;2022-09-09T07:13:30;19.63;;;3.30;;
24145;SDS011;12308;50.948;4.706;2022-09-09T07:16:02;17.35;;;2.85;;
24145;SDS011;12308;50.948;4.706;2022-09-09T07:18:29;12.00;;;3.10;;
24145;SDS011;12308;50.948;4.706;2022-09-09T07:20:55;17.27;;;3.00;;
24145;SDS011;12308;50.948;4.706;2022-09-09T07:23:22;24.67;;;3.70;;
24145;SDS011;12308;50.948;4.706;2022-09-09T07:25:48;23.70;;;3.55;;
24145;SDS011;12308;50.948;4.706;2022-09-09T07:28:15;15.30;;;3.20;;
24145;SDS011;12308;50.948;4.706;2022-09-09T07:30:42;19.10;;;3.38;;
24145;SDS011;12308;50.948;4.706;2022-09-09T07:33:08;12.95;;;3.10;;
24145;SDS011;12308;50.948;4.706;2022-09-09T07:35:37;18.23;;;2.80;;
24145;SDS011;12308;50.948;4.706;2022-09-09T07:38:03;13.45;;;2.72;;
24145;SDS011;12308;50.948;4.706;2022-09-09T07:40:32;14.20;;;3.08;;
24145;SDS011;12308;50.948;4.706;2022-09-09T07:42:59;10.35;;;3.00;;
24145;SDS011;12308;50.948;4.706;2022-09-09T07:45:25;15.82;;;3.08;;
24145;SDS011;12308;50.948;4.706;2022-09-09T07:47:53;11.90;;;2.97;;
24145;SDS011;12308;50.948;4.706;2022-09-09T07:50:22;12.18;;;2.83;;
24145;SDS011;12308;50.948;4.706;2022-09-09T07:52:49;15.15;;;2.78;;
24145;SDS011;12308;50.948;4.706;2022-09-09T07:55:15;12.98;;;2.85;;
24145;SDS011;12308;50.948;4.706;2022-09-09T07:57:41;9.35;;;2.53;;
24145;SDS011;12308;50.948;4.706;2022-09-09T08:00:07;15.55;;;2.80;;
24145;SDS011;12308;50.948;4.706;2022-09-09T08:02:33;16.73;;;2.90;;
24145;SDS011;12308;50.948;4.706;2022-09-09T08:04:59;16.17;;;3.83;;
24145;SDS011;12308;50.948;4.706;2022-09-09T08:07:24;13.80;;;2.97;;
24145;SDS011;12308;50.948;4.706;2022-09-09T08:09:51;17.05;;;3.08;;
24145;SDS011;12308;50.948;4.706;2022-09-09T08:12:16;15.00;;;3.22;;
24145;SDS011;12308;50.948;4.706;2022-09-09T08:14:43;14.98;;;3.28;;
24145;SDS011;12308;50.948;4.706;2022-09-09T08:17:08;16.08;;;3.22;;
24145;SDS011;12308;50.948;4.706;2022-09-09T08:19:34;18.63;;;3.70;;
24145;SDS011;12308;50.948;4.706;2022-09-09T08:22:01;12.23;;;3.10;;
24145;SDS011;12308;50.948;4.706;2022-09-09T08:24:27;14.35;;;2.80;;
24145;SDS011;12308;50.948;4.706;2022-09-09T08:26:53;16.63;;;2.53;;
24145;SDS011;12308;50.948;4.706;2022-09-09T08:29:19;11.60;;;2.65;;
24145;SDS011;12308;50.948;4.706;2022-09-09T08:31:46;23.55;;;3.03;;
24145;SDS011;12308;50.948;4.706;2022-09-09T08:34:14;13.05;;;3.22;;
24145;SDS011;12308;50.948;4.706;2022-09-09T08:36:41;13.27;;;2.83;;
24145;SDS011;12308;50.948;4.706;2022-09-09T08:39:08;14.45;;;3.53;;
24145;SDS011;12308;50.948;4.706;2022-09-09T08:57:48;12.25;;;2.40;;
24145;SDS011;12308;50.948;4.706;2022-09-09T09:00:17;15.10;;;2.55;;
24145;SDS011;12308;50.948;4.706;2022-09-09T09:10:54;14.25;;;2.78;;
24145;SDS011;12308;50.948;4.706;2022-09-09T09:16:14;12.43;;;2.58;;
24145;SDS011;12308;50.948;4.706;2022-09-09T09:18:52;17.83;;;3.35;;
24145;SDS011;12308;50.948;4.706;2022-09-09T09:21:31;10.70;;;2.75;;
24145;SDS011;12308;50.948;4.706;2022-09-09T09:24:03;11.77;;;2.70;;
24145;SDS011;12308;50.948;4.706;2022-09-09T09:26:36;13.75;;;2.97;;
24145;SDS011;12308;50.948;4.706;2022-09-09T09:29:13;13.60;;;3.47;;
24145;SDS011;12308;50.948;4.706;2022-09-09T09:31:47;10.25;;;2.53;;
24145;SDS011;12308;50.948;4.706;2022-09-09T09:34:16;12.50;;;2.75;;
24145;SDS011;12308;50.948;4.706;2022-09-09T09:42:11;14.52;;;2.63;;
24145;SDS011;12308;50.948;4.706;2022-09-09T09:44:39;14.07;;;2.80;;
24145;SDS011;12308;50.948;4.706;2022-09-09T09:49:32;13.38;;;3.08;;
24145;SDS011;12308;50.948;4.706;2022-09-09T09:52:02;12.07;;;2.88;;
24145;SDS011;12308;50.948;4.706;2022-09-09T09:54:34;12.73;;;2.47;;
24145;SDS011;12308;50.948;4.706;2022-09-09T09:57:14;13.25;;;3.25;;
24145;SDS011;12308;50.948;4.706;2022-09-09T09:59:41;12.77;;;3.15;;
24145;SDS011;12308;50.948;4.706;2022-09-09T10:02:21;14.57;;;3.30;;
24145;SDS011;12308;50.948;4.706;2022-09-09T10:05:02;13.80;;;3.00;;
24145;SDS011;12308;50.948;4.706;2022-09-09T10:07:30;13.43;;;3.40;;
24145;SDS011;12308;50.948;4.706;2022-09-09T10:09:57;12.85;;;2.83;;
24145;SDS011;12308;50.948;4.706;2022-09-09T10:26:45;14.75;;;3.67;;
24145;SDS011;12308;50.948;4.706;2022-09-09T10:29:21;12.95;;;3.38;;
24145;SDS011;12308;50.948;4.706;2022-09-09T10:35:17;17.23;;;3.38;;
24145;SDS011;12308;50.948;4.706;2022-09-09T10:42:52;7.90;;;2.83;;
24145;SDS011;12308;50.948;4.706;2022-09-09T10:45:26;17.00;;;3.58;;
24145;SDS011;12308;50.948;4.706;2022-09-09T10:48:19;15.05;;;3.15;;
24145;SDS011;12308;50.948;4.706;2022-09-09T10:50:53;10.77;;;3.08;;
24145;SDS011;12308;50.948;4.706;2022-09-09T10:56:29;9.63;;;2.63;;
24145;SDS011;12308;50.948;4.706;2022-09-09T10:59:00;9.50;;;2.30;;
24145;SDS011;12308;50.948;4.706;2022-09-09T11:01:36;12.13;;;2.83;;
24145;SDS011;12308;50.948;4.706;2022-09-09T11:04:15;11.70;;;2.40;;
24145;SDS011;12308;50.948;4.706;2022-09-09T11:07:06;8.38;;;2.33;;
24145;SDS011;12308;50.948;4.706;2022-09-09T11:09:42;11.25;;;3.33;;
24145;SDS011;12308;50.948;4.706;2022-09-09T11:12:18;11.80;;;2.60;;
24145;SDS011;12308;50.948;4.706;2022-09-09T11:14:54;11.48;;;2.90;;
24145;SDS011;12308;50.948;4.706;2022-09-09T11:17:50;9.70;;;2.92;;
24145;SDS011;12308;50.948;4.706;2022-09-09T11:20:17;13.00;;;3.22;;
24145;SDS011;12308;50.948;4.706;2022-09-09T11:22:45;13.07;;;3.10;;
24145;SDS011;12308;50.948;4.706;2022-09-09T11:25:38;13.57;;;2.80;;
24145;SDS011;12308;50.948;4.706;2022-09-09T11:30:50;9.35;;;2.67;;
24145;SDS011;12308;50.948;4.706;2022-09-09T11:36:12;12.10;;;3.13;;
24145;SDS011;12308;50.948;4.706;2022-09-09T11:38:51;8.15;;;2.28;;
24145;SDS011;12308;50.948;4.706;2022-09-09T11:41:18;9.02;;;2.55;;
24145;SDS011;12308;50.948;4.706;2022-09-09T11:43:51;8.95;;;1.98;;
24145;SDS011;12308;50.948;4.706;2022-09-09T11:46:18;7.25;;;2.00;;
24145;SDS011;12308;50.948;4.706;2022-09-09T11:48:58;9.10;;;1.90;;
24145;SDS011;12308;50.948;4.706;2022-09-09T11:56:34;15.48;;;2.50;;
24145;SDS011;12308;50.948;4.706;2022-09-09T11:59:21;9.68;;;2.35;;
24145;SDS011;12308;50.948;4.706;2022-09-09T12:06:53;9.77;;;2.50;;
24145;SDS011;12308;50.948;4.706;2022-09-09T12:14:38;8.43;;;1.70;;
24145;SDS011;12308;50.948;4.706;2022-09-09T12:17:28;8.10;;;1.98;;
24145;SDS011;12308;50.948;4.706;2022-09-09T12:20:03;8.05;;;2.13;;
24145;SDS011;12308;50.948;4.706;2022-09-09T12:37:28;7.47;;;2.17;;
24145;SDS011;12308;50.948;4.706;2022-09-09T12:39:57;6.70;;;2.30;;
24145;SDS011;12308;50.948;4.706;2022-09-09T12:42:24;8.95;;;2.28;;
24145;SDS011;12308;50.948;4.706;2022-09-09T12:44:55;7.35;;;2.25;;
24145;SDS011;12308;50.948;4.706;2022-09-09T12:47:25;11.13;;;2.40;;
24145;SDS011;12308;50.948;4.706;2022-09-09T12:50:24;9.65;;;2.50;;
24145;SDS011;12308;50.948;4.706;2022-09-09T12:53:03;10.20;;;2.50;;
24145;SDS011;12308;50.948;4.706;2022-09-09T12:55:35;9.48;;;2.58;;
24145;SDS011;12308;50.948;4.706;2022-09-09T12:58:03;12.40;;;2.05;;
24145;SDS011;12308;50.948;4.706;2022-09-09T13:00:31;8.90;;;1.98;;
24145;SDS011;12308;50.948;4.706;2022-09-09T13:02:59;8.43;;;1.73;;
24145;SDS011;12308;50.948;4.706;2022-09-09T13:05:42;6.38;;;1.90;;
24145;SDS011;12308;50.948;4.706;2022-09-09T13:08:08;8.60;;;1.95;;
24145;SDS011;12308;50.948;4.706;2022-09-09T13:10:37;6.10;;;1.80;;
24145;SDS011;12308;50.948;4.706;2022-09-09T13:13:11;6.35;;;1.88;;
24145;SDS011;12308;50.948;4.706;2022-09-09T13:15:49;8.02;;;2.15;;
24145;SDS011;12308;50.948;4.706;2022-09-09T13:18:39;10.45;;;2.65;;
24145;SDS011;12308;50.948;4.706;2022-09-09T13:21:07;6.25;;;2.30;;
24145;SDS011;12308;50.948;4.706;2022-09-09T13:23:34;5.93;;;1.70;;
24145;SDS011;12308;50.948;4.706;2022-09-09T13:28:50;5.82;;;1.42;;
24145;SDS011;12308;50.948;4.706;2022-09-09T13:31:22;6.10;;;1.55;;
24145;SDS011;12308;50.948;4.706;2022-09-09T13:33:55;3.97;;;1.45;;
24145;SDS011;12308;50.948;4.706;2022-09-09T13:36:28;6.00;;;1.55;;
24145;SDS011;12308;50.948;4.706;2022-09-09T13:38:56;4.25;;;1.42;;
24145;SDS011;12308;50.948;4.706;2022-09-09T13:41:29;4.95;;;1.40;;
24145;SDS011;12308;50.948;4.706;2022-09-09T13:43:55;6.07;;;1.65;;
24145;SDS011;12308;50.948;4.706;2022-09-09T13:49:00;9.05;;;1.73;;
24145;SDS011;12308;50.948;4.706;2022-09-09T13:51:47;9.70;;;1.70;;
24145;SDS011;12308;50.948;4.706;2022-09-09T13:54:16;7.05;;;1.77;;
24145;SDS011;12308;50.948;4.706;2022-09-09T13:56:43;6.13;;;1.80;;
24145;SDS011;12308;50.948;4.706;2022-09-09T13:59:13;8.52;;;1.70;;
24145;SDS011;12308;50.948;4.706;2022-09-09T14:01:41;8.75;;;2.00;;
24145;SDS011;12308;50.948;4.706;2022-09-09T14:04:06;6.80;;;1.27;;
24145;SDS011;12308;50.948;4.706;2022-09-09T14:06:34;9.88;;;1.70;;
24145;SDS011;12308;50.948;4.706;2022-09-09T14:09:05;6.32;;;1.58;;
24145;SDS011;12308;50.948;4.706;2022-09-09T14:11:32;4.80;;;1.50;;
24145;SDS011;12308;50.948;4.706;2022-09-09T14:13:58;4.78;;;1.58;;
24145;SDS011;12308;50.948;4.706;2022-09-09T14:16:25;5.95;;;1.90;;
24145;SDS011;12308;50.948;4.706;2022-09-09T14:18:52;6.38;;;1.55;;
24145;SDS011;12308;50.948;4.706;2022-09-09T14:21:18;8.23;;;1.65;;
24145;SDS011;12308;50.948;4.706;2022-09-09T14:23:44;6.75;;;1.30;;
24145;SDS011;12308;50.948;4.706;2022-09-09T14:26:09;4.28;;;1.40;;
24145;SDS011;12308;50.948;4.706;2022-09-09T14:28:36;3.47;;;1.20;;
24145;SDS011;12308;50.948;4.706;2022-09-09T14:31:03;4.25;;;1.45;;
24145;SDS011;12308;50.948;4.706;2022-09-09T14:33:29;5.57;;;1.70;;
24145;SDS011;12308;50.948;4.706;2022-09-09T14:35:58;3.58;;;1.35;;
24145;SDS011;12308;50.948;4.706;2022-09-09T14:38:28;6.13;;;1.33;;
24145;SDS011;12308;50.948;4.706;2022-09-09T14:40:55;5.13;;;1.50;;
24145;SDS011;12308;50.948;4.706;2022-09-09T14:43:21;4.15;;;1.77;;
24145;SDS011;12308;50.948;4.706;2022-09-09T14:45:47;5.10;;;1.75;;
24145;SDS011;12308;50.948;4.706;2022-09-09T14:48:16;6.03;;;1.77;;
24145;SDS011;12308;50.948;4.706;2022-09-09T14:50:42;7.60;;;1.80;;
24145;SDS011;12308;50.948;4.706;2022-09-09T14:53:08;5.18;;;1.42;;
24145;SDS011;12308;50.948;4.706;2022-09-09T14:55:35;8.05;;;1.75;;
24145;SDS011;12308;50.948;4.706;2022-09-09T14:58:01;5.82;;;2.00;;
24145;SDS011;12308;50.948;4.706;2022-09-09T15:00:26;6.70;;;1.83;;
24145;SDS011;12308;50.948;4.706;2022-09-09T15:02:53;4.88;;;1.60;;
24145;SDS011;12308;50.948;4.706;2022-09-09T15:05:19;6.03;;;2.05;;
24145;SDS011;12308;50.948;4.706;2022-09-09T15:07:45;6.05;;;1.73;;
24145;SDS011;12308;50.948;4.706;2022-09-09T15:10:10;6.18;;;1.90;;
24145;SDS011;12308;50.948;4.706;2022-09-09T15:12:36;7.93;;;2.03;;
24145;SDS011;12308;50.948;4.706;2022-09-09T15:15:03;11.02;;;2.13;;
24145;SDS011;12308;50.948;4.706;2022-09-09T15:17:29;5.90;;;1.75;;
24145;SDS011;12308;50.948;4.706;2022-09-09T15:19:55;5.65;;;1.85;;
24145;SDS011;12308;50.948;4.706;2022-09-09T15:22:21;5.47;;;1.63;;
24145;SDS011;12308;50.948;4.706;2022-09-09T15:24:47;6.20;;;1.80;;
24145;SDS011;12308;50.948;4.706;2022-09-09T15:27:13;7.05;;;1.60;;
24145;SDS011;12308;50.948;4.706;2022-09-09T15:29:39;5.28;;;2.10;;
24145;SDS011;12308;50.948;4.706;2022-09-09T15:32:06;6.57;;;1.67;;
24145;SDS011;12308;50.948;4.706;2022-09-09T15:34:33;7.88;;;2.30;;
24145;SDS011;12308;50.948;4.706;2022-09-09T15:36:59;6.07;;;1.52;;
24145;SDS011;12308;50.948;4.706;2022-09-09T15:39:25;3.85;;;1.73;;
24145;SDS011;12308;50.948;4.706;2022-09-09T15:41:51;3.83;;;1.45;;
24145;SDS011;12308;50.948;4.706;2022-09-09T15:44:16;3.92;;;1.20;;
24145;SDS011;12308;50.948;4.706;2022-09-09T15:51:37;3.92;;;1.55;;
24145;SDS011;12308;50.948;4.706;2022-09-09T15:54:04;5.85;;;2.00;;
24145;SDS011;12308;50.948;4.706;2022-09-09T15:56:30;5.65;;;2.00;;
24145;SDS011;12308;50.948;4.706;2022-09-09T15:58:58;5.43;;;1.98;;
24145;SDS011;12308;50.948;4.706;2022-09-09T16:01:25;10.60;;;1.90;;
24145;SDS011;12308;50.948;4.706;2022-09-09T16:03:52;6.97;;;2.03;;
24145;SDS011;12308;50.948;4.706;2022-09-09T16:06:19;7.60;;;1.65;;
24145;SDS011;12308;50.948;4.706;2022-09-09T16:08:47;6.72;;;2.05;;
24145;SDS011;12308;50.948;4.706;2022-09-09T16:11:19;6.00;;;1.73;;
24145;SDS011;12308;50.948;4.706;2022-09-09T16:13:47;5.07;;;1.48;;
24145;SDS011;12308;50.948;4.706;2022-09-09T16:16:14;6.55;;;1.83;;
24145;SDS011;12308;50.948;4.706;2022-09-09T16:18:45;5.18;;;1.73;;
24145;SDS011;12308;50.948;4.706;2022-09-09T16:21:16;8.25;;;1.88;;
24145;SDS011;12308;50.948;4.706;2022-09-09T16:23:47;6.78;;;1.90;;
24145;SDS011;12308;50.948;4.706;2022-09-09T16:26:15;9.48;;;1.95;;
24145;SDS011;12308;50.948;4.706;2022-09-09T16:28:41;7.70;;;1.55;;
24145;SDS011;12308;50.948;4.706;2022-09-09T16:31:09;8.88;;;2.05;;
24145;SDS011;12308;50.948;4.706;2022-09-09T16:33:38;7.57;;;2.05;;
24145;SDS011;12308;50.948;4.706;2022-09-09T16:36:08;7.20;;;1.88;;
24145;SDS011;12308;50.948;4.706;2022-09-09T16:38:36;8.25;;;1.85;;
24145;SDS011;12308;50.948;4.706;2022-09-09T16:41:02;7.72;;;2.05;;
24145;SDS011;12308;50.948;4.706;2022-09-09T16:43:31;8.95;;;2.10;;
24145;SDS011;12308;50.948;4.706;2022-09-09T16:46:00;5.65;;;1.73;;
24145;SDS011;12308;50.948;4.706;2022-09-09T16:48:31;5.55;;;1.95;;
24145;SDS011;12308;50.948;4.706;2022-09-09T16:51:41;10.40;;;2.17;;
24145;SDS011;12308;50.948;4.706;2022-09-09T16:53:51;4.40;;;2.15;;
24145;SDS011;12308;50.948;4.706;2022-09-09T16:56:19;7.15;;;2.55;;
24145;SDS011;12308;50.948;4.706;2022-09-09T16:58:50;6.57;;;2.35;;
24145;SDS011;12308;50.948;4.706;2022-09-09T17:01:17;4.22;;;1.80;;
24145;SDS011;12308;50.948;4.706;2022-09-09T17:03:43;5.13;;;2.13;;
24145;SDS011;12308;50.948;4.706;2022-09-09T17:06:09;4.88;;;1.90;;
24145;SDS011;12308;50.948;4.706;2022-09-09T17:08:37;4.07;;;2.28;;
24145;SDS011;12308;50.948;4.706;2022-09-09T17:11:04;3.58;;;1.75;;
24145;SDS011;12308;50.948;4.706;2022-09-09T17:13:41;7.00;;;2.00;;
24145;SDS011;12308;50.948;4.706;2022-09-09T17:16:13;7.57;;;2.00;;
24145;SDS011;12308;50.948;4.706;2022-09-09T17:18:41;6.68;;;2.53;;
24145;SDS011;12308;50.948;4.706;2022-09-09T17:21:11;6.15;;;1.90;;
24145;SDS011;12308;50.948;4.706;2022-09-09T17:23:39;7.35;;;2.10;;
24145;SDS011;12308;50.948;4.706;2022-09-09T17:26:06;5.30;;;1.85;;
24145;SDS011;12308;50.948;4.706;2022-09-09T17:28:34;6.70;;;2.20;;
24145;SDS011;12308;50.948;4.706;2022-09-09T17:31:00;5.43;;;2.20;;
24145;SDS011;12308;50.948;4.706;2022-09-09T17:33:31;4.50;;;1.88;;
24145;SDS011;12308;50.948;4.706;2022-09-09T17:36:02;3.53;;;1.50;;
24145;SDS011;12308;50.948;4.706;2022-09-09T17:38:33;5.43;;;1.80;;